Pagina principale
METAR-TAF:

METAR-TAF

Aeroporti :

Aeroporto di Ouagadougou

Ouagadougou, Burkina Faso

latitudine: 12-21N, longitudine: 001-31W, altezza: 316 m

Osservazione

Il bollettino è stato emesso 53 minuti fa, alle 11:00 UTC
Vento 6 kt da nord-est, variando fra nord e est/nord-est
Temperature 34°C
Umidità 13%
Pressione 1013 hPa
Visibilità 10 km o più
nessuna nube inferiore a 1500 m e nessun cumulonembo

METAR: DFFD 201100Z 04006KT 350V070 CAVOK 34/02 Q1013 NOSIG

Ora: 11:53 (11:53 UTC)

Previsione

Il bollettino è stato emesso 53 minuti fa, alle 11:00 UTC
Previsione valida dal 20 alle 12 UTC al 21 alle 18 UTC
Vento 8 kt da nord/nord-est
Visibilità 10 km o più
nessuna nube inferiore a 1500 m e nessun cumulonembo
Temporaneamente
dal 20 alle 18 UTC al 20 alle 21 UTC
Visibilità: 4000 m
foschia
Temporaneamente
dal 21 alle 06 UTC al 21 alle 10 UTC
Visibilità: 4000 m
foschia

TAF: DFFD 201100Z 2012/2118 02008KT CAVOK TEMPO 2018/2021 4000 HZ TEMPO 2106/2110 4000 HZ

Osservazioni e previsioni meteorologiche di più di 4000 aeroporti (messaggi METAR e TAF).

Le stazioni disponibili sono rappresentate dai dischi gialli e rossi sulla carta.

Puntare il mouse per vedere il nome della stazione.

Clicca sopra per visualizzare le osservazioni e previsioni meteorologiche.

Per cambiare la mappa : fare clic sui pulsanti verdi con una croce nera per ingrandire, il pulsante verde con un trattino per diminuire, o sulla freccia verde per le mappe adiacenti.


METAR-TAF: